createdAt,value
2016-06-29T00:02:49.923Z,1010.92
2016-06-29T00:07:49.901Z,1010.91
2016-06-29T00:12:49.891Z,1010.96
2016-06-29T00:17:49.875Z,1010.86
2016-06-29T00:22:49.866Z,1010.81
2016-06-29T00:27:49.851Z,1010.58
2016-06-29T00:32:49.867Z,1010.51
2016-06-29T00:37:49.826Z,1010.46
2016-06-29T00:42:49.835Z,1010.4
2016-06-29T00:47:49.823Z,1010.4
2016-06-29T00:52:49.789Z,1010.34
2016-06-29T00:57:49.773Z,1010.31
2016-06-29T01:02:49.751Z,1010.38
2016-06-29T01:07:49.746Z,1010.43
2016-06-29T01:12:49.736Z,1010.3
2016-06-29T01:17:49.715Z,1010.24
2016-06-29T01:22:49.700Z,1010.36
2016-06-29T01:27:49.691Z,1010.37
2016-06-29T01:32:49.671Z,1010.24
2016-06-29T01:37:49.655Z,1010.3
2016-06-29T01:42:49.643Z,1010.26
2016-06-29T01:47:49.627Z,1010.21
2016-06-29T01:52:49.607Z,1010.37
2016-06-29T01:57:49.593Z,1010.44
2016-06-29T02:02:49.577Z,1010.33
2016-06-29T02:07:49.564Z,1010.42
2016-06-29T02:12:49.539Z,1010.4
2016-06-29T02:17:49.533Z,1010.38
2016-06-29T02:22:49.521Z,1010.4
2016-06-29T02:27:49.496Z,1010.42
2016-06-29T02:32:49.474Z,1010.44
2016-06-29T02:37:49.468Z,1010.46
2016-06-29T02:42:49.447Z,1010.45
2016-06-29T02:47:49.433Z,1010.52
2016-06-29T02:52:49.415Z,1010.42
2016-06-29T02:57:49.399Z,1010.46
2016-06-29T03:02:49.382Z,1010.44
2016-06-29T03:07:49.373Z,1010.41
2016-06-29T03:12:49.349Z,1010.35
2016-06-29T03:17:49.336Z,1010.38
2016-06-29T03:22:49.332Z,1010.28
2016-06-29T03:27:49.304Z,1010.27
2016-06-29T03:32:49.283Z,1010.27
2016-06-29T03:37:49.274Z,1010.31
2016-06-29T03:42:49.262Z,1010.29
2016-06-29T03:47:49.256Z,1010.28
2016-06-29T03:52:49.220Z,1010.22
2016-06-29T03:57:49.202Z,1010.23
2016-06-29T04:02:49.187Z,1010.2
2016-06-29T04:07:49.174Z,1010.15
2016-06-29T04:12:49.157Z,1010.11
2016-06-29T04:17:49.142Z,1010.16
2016-06-29T04:22:49.128Z,1010.15
2016-06-29T04:27:49.113Z,1010.11
2016-06-29T04:32:49.096Z,1010
2016-06-29T04:37:49.077Z,1010.02
2016-06-29T04:42:49.082Z,1010.03
2016-06-29T04:47:49.063Z,1009.99
2016-06-29T04:52:49.046Z,1010.15
2016-06-29T04:57:49.046Z,1010.15
2016-06-29T05:02:49.025Z,1010.18
2016-06-29T05:07:49.023Z,1010.22
2016-06-29T05:12:49.014Z,1010.27
2016-06-29T05:17:48.999Z,1010.32
2016-06-29T05:22:48.995Z,1010.38
2016-06-29T05:27:48.978Z,1010.39
2016-06-29T05:32:48.988Z,1010.45
2016-06-29T05:37:48.958Z,1010.52
2016-06-29T05:42:48.948Z,1010.58
2016-06-29T05:47:48.934Z,1010.64
2016-06-29T05:52:48.929Z,1010.73
2016-06-29T05:57:48.919Z,1010.74
2016-06-29T06:02:48.902Z,1010.67
2016-06-29T06:07:48.903Z,1010.67
2016-06-29T06:12:48.880Z,1010.67
2016-06-29T06:17:48.868Z,1010.8
2016-06-29T06:22:48.857Z,1010.79
2016-06-29T06:27:48.840Z,1010.83
2016-06-29T06:32:48.831Z,1010.89
2016-06-29T06:37:48.835Z,1010.91
2016-06-29T06:42:48.810Z,1010.94
2016-06-29T06:47:48.814Z,1011.05
2016-06-29T06:52:48.803Z,1010.99
2016-06-29T06:57:48.789Z,1010.96
2016-06-29T07:02:48.820Z,1011
2016-06-29T07:07:48.790Z,1011.05
2016-06-29T07:12:48.776Z,1011
2016-06-29T07:17:48.765Z,1011.1
2016-06-29T07:22:48.769Z,1011.11
2016-06-29T07:27:48.758Z,1011.16
2016-06-29T07:32:48.753Z,1011.13
2016-06-29T07:37:48.747Z,1011.11
2016-06-29T07:42:48.735Z,1011.33
2016-06-29T07:47:48.731Z,1011.39
2016-06-29T07:52:48.742Z,1011.49
2016-06-29T07:57:48.727Z,1011.5
2016-06-29T08:02:48.726Z,1011.48
2016-06-29T08:07:48.726Z,1011.42
2016-06-29T08:12:48.740Z,1011.54
2016-06-29T08:17:48.739Z,1011.46
2016-06-29T08:22:48.724Z,1011.54
2016-06-29T08:27:48.732Z,1011.61
2016-06-29T08:32:48.726Z,1011.6
2016-06-29T08:37:48.725Z,1011.59
2016-06-29T08:42:48.726Z,1011.67
2016-06-29T08:47:48.737Z,1011.73
2016-06-29T08:52:48.726Z,1011.95
2016-06-29T08:57:48.724Z,1012.02
2016-06-29T09:02:48.725Z,1012.06
2016-06-29T09:07:48.725Z,1012
2016-06-29T09:12:48.732Z,1011.93
2016-06-29T09:17:48.735Z,1012
2016-06-29T09:22:48.727Z,1012.06
2016-06-29T09:27:48.730Z,1012.13
2016-06-29T09:32:48.731Z,1013.02
2016-06-29T09:37:48.730Z,1012.19
2016-06-29T09:42:48.746Z,1012.17
2016-06-29T09:47:48.730Z,1012.35
2016-06-29T09:52:48.734Z,1012.34
2016-06-29T09:57:48.745Z,1012.4
2016-06-29T10:02:48.734Z,1012.47
2016-06-29T10:07:48.742Z,1012.85
2016-06-29T10:12:48.744Z,1012.57
2016-06-29T10:17:48.741Z,1012.52
2016-06-29T10:22:48.742Z,1012.5
2016-06-29T10:27:48.754Z,1012.56
2016-06-29T10:32:48.745Z,1012.65
2016-06-29T10:37:48.744Z,1012.69
2016-06-29T10:42:48.743Z,1012.84
2016-06-29T10:47:48.745Z,1012.84
2016-06-29T10:52:48.750Z,1012.64
2016-06-29T10:57:48.766Z,1012.64
2016-06-29T11:02:48.754Z,1012.6
2016-06-29T11:07:48.754Z,1012.7
2016-06-29T11:12:48.765Z,1012.7
2016-06-29T11:17:48.759Z,1012.66
2016-06-29T11:22:48.760Z,1012.6
2016-06-29T11:27:48.770Z,1012.69
2016-06-29T11:32:48.770Z,1012.69
2016-06-29T11:37:48.798Z,1012.59
2016-06-29T11:42:48.790Z,1012.67
2016-06-29T11:47:48.778Z,1012.92
2016-06-29T11:52:48.777Z,1013.03
2016-06-29T11:57:48.771Z,1012.82
2016-06-29T12:04:39.890Z,1012.9
2016-06-29T12:09:39.859Z,1012.81
